• Join FlightAware (Why Join?)
  • Login
  • US Flag 
Trick or treat! (Boo!!) 
07:11PM EDT


 

Airport Tracker/Info


-or-


 

Live Flight TrackerFlight Track Log ✈ AWE3921 ✈ 11-Apr-2013 ✈ KROC - KDCA

Flight Track Log - Related Links

Times and Time Zones

All times are in EDT time to prevent confusion due to time zone crossing. See the AWE3921 flight status page for this flight to view local times or setup timezone preferences in your user account.

Time Position Orientation Groundspeed Altitude Reporting Facility
EDT Latitude Longitude Course Direction KTS MPH feet Rate Location/Type
12:22PM 43.1219 -77.6792 180° South 146 168 1,100  Level Cleveland Center
12:23PM 43.1617 -77.6828 356° North 205 236 3,000 2,580 Climbing Cleveland Center
12:24PM 43.1431 -77.7692 254° West 243 280 6,500 2,520 Climbing Cleveland Center
12:25PM 42.8268 -77.7185 192° South  Level FlightAware Approximate
12:25PM 43.1092 -77.8417 237° Southwest 243 280 8,800  Level Cleveland Center
12:26PM 42.7307 -77.7460 192° South  Level FlightAware Approximate
12:26PM 43.0383 -77.8392 179° South 224 258 10,900  Level Cleveland Center
12:27PM 42.6347 -77.7746 192° South  Level FlightAware Approximate
12:27PM 42.9603 -77.8000 160° South 242 278 12,700  Level Cleveland Center
12:28PM 42.5385 -77.8000 180° South  Level FlightAware Approximate
12:28PM 42.8800 -77.7583 159° South 280 322 14,900  Level Cleveland Center
12:29PM 42.7942 -77.7425 172° South 305 351 16,500 1,500 Climbing Cleveland Center
12:30PM 42.7094 -77.7661 192° South 305 351 17,900 1,740 Climbing Cleveland Center
12:31PM 42.6119 -77.7928 191° South 310 357 20,000 1,860 Climbing Cleveland Center
12:32PM 42.5269 -77.8136 190° South 316 364 21,700 1,380 Climbing Cleveland Center
12:33PM 42.4422 -77.8369 191° South 316 364 22,800 1,020 Climbing Cleveland Center
12:34PM 42.3531 -77.8606 191° South 321 369 23,800 960 Climbing Cleveland Center
12:35PM 42.2597 -77.8842 191° South 333 383 24,800 600 Climbing Cleveland Center
12:36PM 42.1644 -77.9078 190° South 339 390 25,000 60 Climbing Cleveland Center
12:37PM 42.0669 -77.9344 191° South 352 405 25,000  Level Cleveland Center
12:38PM 41.9697 -77.9578 190° South 357 411 25,000  Level Cleveland Center
12:39PM 41.8764 -77.9783 189° South 366 421 25,000  Level Cleveland Center
12:40PM 41.7789 -78.0047 191° South 372 428 25,000  Level Cleveland Center
12:41PM 41.6772 -78.0311 191° South 372 428 25,000  Level Cleveland Center
12:42PM 41.5756 -78.0544 190° South 372 428 25,000  Level Cleveland Center
12:43PM 41.4839 -78.0794 192° South 370 426 25,000  Level New York Center
12:44PM 41.3700 -78.1028 189° South 365 420 25,000  Level New York Center
12:45PM 41.2683 -78.1306 192° South 375 432 25,000  Level New York Center
12:46PM 41.1628 -78.1192 175° South 375 432 25,000  Level New York Center
12:47PM 41.0578 -78.0636 158° South 386 444 25,000  Level New York Center
12:48PM 40.9525 -78.0139 160° South 391 450 25,000 -1,200 Level New York Center
12:49PM 40.8558 -77.9242 145° Southeast 403 464 22,600 -2,400 Descending New York Center
12:50PM 40.7661 -77.8214 139° Southeast 415 478 20,200 -1,800 Descending New York Center
12:51PM 40.6761 -77.7192 139° Southeast 427 491 19,100 -660 Descending New York Center
12:52PM 40.5958 -77.6317 140° Southeast 427 491 19,000 -60 Descending New York Center
12:53PM 40.5036 -77.5297 140° Southeast 410 472 19,000  Level New York Center
12:54PM 40.4272 -77.4431 139° Southeast 404 465 19,000  Level New York Center
12:55PM 40.3353 -77.3361 138° Southeast 404 465 19,000  Level New York Center
12:56PM 40.2586 -77.2528 140° Southeast 404 465 19,000  Level New York Center
12:57PM 40.1644 -77.1461 139° Southeast 404 465 19,000  Level New York Center
12:58PM 40.0875 -77.0631 140° Southeast 404 465 19,000  Level New York Center
12:59PM 39.9947 -76.9625 140° Southeast 404 465 19,000  Level New York Center
01:00PM 39.9131 -76.9311 164° South 385 443 19,000 -360 Level New York Center
01:01PM 39.7925 -76.8853 164° South 380 437 18,300 -1,200 Descending New York Center
01:02PM 39.6961 -76.8525 165° South 380 437 16,600 -1,920 Descending New York Center
01:03PM 39.5667 -76.8167 168° South 372 428 14,300 -2,100 Descending Potomac TRACON
01:04PM 39.4833 -76.7667 155° Southeast 364 419 12,200 -1,140 Descending Potomac TRACON
01:06PM 39.3667 -76.7333 168° South 344 396 12,000 -480 Descending Potomac TRACON
01:07PM 39.3000 -76.7000 159° South 311 358 11,300 -1,020 Descending Potomac TRACON
01:08PM 39.2167 -76.6833 171° South 274 315 10,100 -720 Descending Potomac TRACON
01:08PM 39.1500 -76.6833 180° South 271 312 10,000 -60 Descending Potomac TRACON
01:09PM 39.1000 -76.7500 226° Southwest 258 297 10,000 -300 Level Potomac TRACON
01:10PM 39.0500 -76.8000 218° Southwest 253 291 9,400 -1,200 Descending Potomac TRACON
01:11PM 39.0000 -76.8667 226° Southwest 254 292 7,600 -1,680 Descending Potomac TRACON
01:12PM 38.9667 -76.9333 237° Southwest 248 285 6,100 -1,020 Descending Potomac TRACON
01:13PM 38.9833 -77.0167 284° West 218 251 5,600 -600 Descending Potomac TRACON
01:14PM 39.0167 -77.0667 311° West 199 229 5,000 -960 Descending Potomac TRACON
01:15PM 39.0167 -77.1333 270° West 182 209 3,700 -1,200 Descending Potomac TRACON
01:16PM 38.9833 -77.1833 229° Southwest 183 211 2,700 -900 Descending Potomac TRACON
01:17PM 38.9500 -77.1500 142° Southeast 170 196 2,000 -720 Descending Potomac TRACON